This is the latest recevied weather packets stored in our database for station/object NK7E. If no packets are shown the sender has not sent any weather packets the latest 10 day(s).
| Time | Temp. | Humidity | Pressure | Rain* | Wind** | Luminosity | Snow |
|---|---|---|---|---|---|---|---|
| 1777955115 | 15.56° C | 80% | 1015 hPa | 0.51 mm | - | 0 W/m² | - |
| 1777954515 | 16.11° C | 80% | 1014.9 hPa | 0.25 mm | - | 0 W/m² | - |
| 1777953915 | 16.11° C | 77% | 1014.9 hPa | 0 mm | - | 0 W/m² | - |
| 1777953315 | 15.56° C | 77% | 1014.8 hPa | 0.25 mm | - | 0 W/m² | - |
| 1777952717 | 15.56° C | 76% | 1014.4 hPa | 0.25 mm | - | 0 W/m² | - |
| 1777952117 | 15.56° C | 74% | 1013.8 hPa | 0.51 mm | - | 0 W/m² | - |
| 1777951517 | 15.56° C | 76% | 1013.6 hPa | 0.51 mm | - | 0 W/m² | - |
| 1777950917 | 15° C | 74% | 1013.8 hPa | 0.76 mm | - | 0 W/m² | - |
| 1777950318 | 14.44° C | 72% | 1014.5 hPa | 1.27 mm | - | 0 W/m² | - |
| 1777949717 | 13.89° C | 72% | 1014.7 hPa | 1.52 mm | - | 0 W/m² | - |
| 1777949117 | 14.44° C | 75% | 1014.8 hPa | 1.78 mm | - | 0 W/m² | - |
| 1777948517 | 14.44° C | 71% | 1014.9 hPa | 1.78 mm | - | 0 W/m² | - |
| 1777947917 | 15° C | 71% | 1014.8 hPa | 1.78 mm | - | 0 W/m² | - |
| 1777947317 | 15° C | 69% | 1014.8 hPa | 1.78 mm | - | 0 W/m² | - |
| 1777946717 | 16.11° C | 65% | 1014.9 hPa | 1.27 mm | - | 0 W/m² | - |
| 1777946117 | 16.67° C | 58% | 1014.8 hPa | 0.76 mm | - | 0 W/m² | - |
| 1777945517 | 16.67° C | 57% | 1014.6 hPa | 0.76 mm | - | 0 W/m² | - |
| 1777944917 | 17.22° C | 57% | 1014.5 hPa | 0.51 mm | - | 0 W/m² | - |
| 1777944317 | 17.22° C | 58% | 1014.3 hPa | 0.51 mm | - | 5 W/m² | - |
| 1777943717 | 17.78° C | 63% | 1014 hPa | 0.25 mm | - | 8 W/m² | - |
| 1777943117 | 18.33° C | 61% | 1014 hPa | 0.25 mm | - | 11 W/m² | - |
| 1777942517 | 18.89° C | 55% | 1014 hPa | 0.25 mm | - | 9 W/m² | - |
| 1777941917 | 19.44° C | 50% | 1014 hPa | 0 mm | - | 14 W/m² | - |
| 1777941317 | 19.44° C | 48% | 1014 hPa | 0 mm | - | 22 W/m² | - |
| 1777940717 | 20° C | 47% | 1014 hPa | 0 mm | - | 31 W/m² | - |
* Rain latest hour (hover to see other rain measurements)
** Current wind speed in m/s (hover to see current wind gust speed)